Time;durP1;ratioP1;P1;durP2;ratioP2;P2;SDS_P1;SDS_P2;PMS_P1;PMS_P2;Temp;Humidity;BMP_temperature;BMP_pressure;BME280_temperature;BME280_humidity;BME280_pressure;Samples;Min_cycle;Max_cycle;Signal;HPM_P1;HPM_P2
2023/01/13 00:00:22;;;;;;;0.10;0.10;;;;;;;8.82;74.60;98945.66;7360039;19;20029;-59
2023/01/13 00:02:48;;;;;;;0.10;0.10;;;;;;;8.80;74.52;98963.06;7360175;19;20058;-59
2023/01/13 00:05:13;;;;;;;0.00;0.00;;;;;;;8.80;74.71;98955.28;7360767;19;20689;-58
2023/01/13 00:07:39;;;;;;;0.00;0.00;;;;;;;8.77;74.04;98966.69;7360776;19;20585;-58
2023/01/13 00:10:09;;;;;;;0.00;0.00;;;;;;;8.79;74.15;98966.59;7360103;19;20031;-58
2023/01/13 00:12:38;;;;;;;0.00;0.00;;;;;;;8.79;74.08;98977.00;7361531;19;20014;-58
2023/01/13 00:15:04;;;;;;;0.00;0.00;;;;;;;8.78;74.50;98985.72;7353241;19;20019;-58
2023/01/13 00:17:29;;;;;;;0.10;0.10;;;;;;;8.79;74.07;98966.59;7361126;19;20045;-58
2023/01/13 00:19:55;;;;;;;0.00;0.00;;;;;;;8.64;74.05;98969.84;7359532;19;20565;-58
2023/01/13 00:22:21;;;;;;;0.10;0.10;;;;;;;8.76;74.15;98998.78;7361146;19;20768;-58
2023/01/13 00:24:46;;;;;;;0.10;0.10;;;;;;;8.78;74.13;99016.97;7357984;19;20019;-58
2023/01/13 00:27:12;;;;;;;0.10;0.10;;;;;;;8.78;74.45;99012.59;7361213;19;20655;-58
2023/01/13 00:29:37;;;;;;;0.10;0.10;;;;;;;8.77;74.18;99008.31;7357344;19;20031;-58
2023/01/13 00:32:03;;;;;;;0.03;0.03;;;;;;;8.77;74.52;98994.47;7361584;19;20066;-58
2023/01/13 00:34:28;;;;;;;0.00;0.00;;;;;;;8.79;74.07;99008.25;7356357;19;20018;-57
2023/01/13 00:36:55;;;;;;;0.05;0.05;;;;;;;8.79;74.58;99008.25;7362124;19;20669;-59
2023/01/13 00:39:20;;;;;;;0.00;0.00;;;;;;;8.80;73.91;99004.72;7360677;19;20002;-58
2023/01/13 00:44:29;;;;;;;0.00;0.00;;;;;;;8.79;74.07;99023.84;7361010;19;20044;-58
2023/01/13 00:46:55;;;;;;;0.00;0.00;;;;;;;8.77;73.83;99004.88;7359232;19;20054;-59
2023/01/13 00:49:21;;;;;;;0.03;0.03;;;;;;;8.76;73.72;99016.16;7359806;19;20077;-58
2023/01/13 00:51:46;;;;;;;0.10;0.10;;;;;;;8.76;73.90;98987.53;7360986;19;20011;-58
2023/01/13 00:54:11;;;;;;;0.05;0.05;;;;;;;8.74;74.08;99005.00;7359401;19;20010;-58
2023/01/13 00:56:37;;;;;;;0.10;0.10;;;;;;;8.73;74.02;99008.50;7359161;19;20010;-58
2023/01/13 00:59:02;;;;;;;0.00;0.00;;;;;;;8.71;73.47;99026.75;7358087;19;20042;-57
2023/01/13 01:01:28;;;;;;;0.00;0.00;;;;;;;8.69;73.61;99018.19;7361595;19;20003;-58
2023/01/13 01:03:54;;;;;;;0.00;0.00;;;;;;;8.66;74.07;99020.06;7359028;19;20090;-58
2023/01/13 01:06:26;;;;;;;0.10;0.10;;;;;;;8.65;73.74;99024.44;7360487;19;20006;-59
2023/01/13 01:08:53;;;;;;;0.10;0.10;;;;;;;8.61;73.80;99040.22;7358527;19;20478;-58
2023/01/13 01:11:22;;;;;;;0.10;0.10;;;;;;;8.61;74.11;99035.03;7356826;19;20026;-58
2023/01/13 01:13:51;;;;;;;0.00;0.00;;;;;;;8.60;73.90;99056.75;7360713;19;20641;-58
2023/01/13 01:16:18;;;;;;;0.10;0.10;;;;;;;8.56;74.24;99046.47;7358633;19;20846;-58
2023/01/13 01:18:45;;;;;;;0.00;0.00;;;;;;;8.54;74.09;99048.28;7357267;19;21135;-58
2023/01/13 01:21:11;;;;;;;;;;;;;;;8.56;73.96;99064.66;7356860;19;20030;-58
2023/01/13 01:23:38;;;;;;;0.00;0.00;;;;;;;8.53;73.73;99070.00;7359186;19;19922;-59
2023/01/13 01:26:06;;;;;;;0.10;0.10;;;;;;;8.44;73.76;99044.38;7348282;19;20011;-58
2023/01/13 01:28:33;;;;;;;0.10;0.10;;;;;;;8.54;73.86;99076.06;7360945;19;20011;-58
2023/01/13 01:30:58;;;;;;;0.00;0.00;;;;;;;8.47;73.75;99092.84;7359596;19;20064;-57
2023/01/13 01:33:27;;;;;;;0.10;0.10;;;;;;;8.52;74.25;99059.69;7356598;19;20014;-56
2023/01/13 01:35:53;;;;;;;0.03;0.03;;;;;;;8.54;73.97;99074.31;7362726;19;20463;-58
2023/01/13 01:38:21;;;;;;;0.10;0.10;;;;;;;8.53;73.90;99106.44;7367181;19;20015;-58
2023/01/13 01:40:46;;;;;;;0.10;0.10;;;;;;;8.53;74.27;99100.38;7365178;19;20010;-57
2023/01/13 01:46:02;;;;;;;0.00;0.00;;;;;;;8.55;74.20;99130.63;7261399;19;2004422;-58
2023/01/13 01:48:32;;;;;;;0.00;0.00;;;;;;;8.55;74.40;99125.41;7366494;19;20609;-57
2023/01/13 01:50:58;;;;;;;0.00;0.00;;;;;;;8.54;74.19;99123.72;7363689;19;20819;-58
2023/01/13 01:53:26;;;;;;;0.10;0.10;;;;;;;8.54;73.88;99136.75;7365512;19;20014;-58
2023/01/13 01:55:53;;;;;;;0.10;0.10;;;;;;;8.50;74.23;99137.75;7366448;19;20010;-58
2023/01/13 01:58:26;;;;;;;0.03;0.03;;;;;;;8.49;74.32;99123.06;7362476;19;20026;-58
2023/01/13 02:00:52;;;;;;;0.00;0.00;;;;;;;8.37;74.15;99120.97;7365281;19;20002;-58
2023/01/13 02:03:18;;;;;;;0.10;0.10;;;;;;;8.52;74.21;99148.97;7364195;19;20021;-58
2023/01/13 02:05:43;;;;;;;0.00;0.00;;;;;;;8.53;74.41;99162.84;7365381;19;21933;-58
2023/01/13 02:08:11;;;;;;;0.00;0.00;;;;;;;8.47;74.11;99163.91;7365723;19;20014;-58
2023/01/13 02:10:38;;;;;;;0.10;0.10;;;;;;;8.54;74.28;99180.13;7365060;19;20717;-58
2023/01/13 02:13:07;;;;;;;0.00;0.00;;;;;;;8.56;74.38;99173.94;7356122;19;20505;-58
2023/01/13 02:15:46;;;;;;;0.10;0.10;;;;;;;8.57;74.08;99170.47;7366443;19;20506;-58
2023/01/13 02:18:24;;;;;;;0.00;0.00;;;;;;;8.61;74.34;99193.75;7364976;19;20559;-58
2023/01/13 02:21:07;;;;;;;0.05;0.05;;;;;;;8.58;74.27;99195.56;7366038;19;20010;-58
2023/01/13 02:26:53;;;;;;;0.00;0.00;;;;;;;8.60;74.04;99221.50;7264643;19;2004553;-58
2023/01/13 02:32:25;;;;;;;0.10;0.10;;;;;;;8.63;73.88;99231.81;7263458;19;2004477;-58
2023/01/13 02:35:05;;;;;;;0.10;0.10;;;;;;;8.64;73.91;99238.72;7361505;19;20035;-58
2023/01/13 02:37:35;;;;;;;0.00;0.00;;;;;;;8.66;74.14;99236.88;7362702;19;20006;-58
2023/01/13 02:40:07;;;;;;;0.00;0.00;;;;;;;8.67;74.17;99249.03;7366200;19;20007;-58
2023/01/13 02:45:34;;;;;;;0.00;0.00;;;;;;;8.69;73.92;99260.19;7361872;19;20016;-58
2023/01/13 02:48:04;;;;;;;0.00;0.00;;;;;;;8.69;74.00;99249.78;7366425;19;20006;-58
2023/01/13 02:50:45;;;;;;;0.00;0.00;;;;;;;8.70;74.13;99261.06;7363812;19;20010;-58
2023/01/13 02:53:16;;;;;;;0.00;0.00;;;;;;;8.70;73.79;99269.69;7364705;19;20014;-59
2023/01/13 02:55:47;;;;;;;0.10;0.10;;;;;;;8.70;73.71;99268.84;7365595;19;20013;-58
2023/01/13 02:58:16;;;;;;;0.03;0.03;;;;;;;8.70;73.83;99263.66;7355312;19;20025;-58
2023/01/13 03:00:43;;;;;;;0.00;0.00;;;;;;;8.69;73.94;99277.56;7364268;19;20030;-58
2023/01/13 03:03:08;;;;;;;0.10;0.10;;;;;;;8.67;73.74;99284.56;7362820;19;20002;-58
2023/01/13 03:05:35;;;;;;;0.10;0.10;;;;;;;8.57;73.44;99242.47;7356417;19;20033;-58
2023/01/13 03:08:22;;;;;;;0.00;0.00;;;;;;;8.68;73.96;99307.13;7363030;19;20038;-58
2023/01/13 03:11:06;;;;;;;0.03;0.03;;;;;;;8.55;73.75;99291.09;7263265;19;2004562;-58
2023/01/13 03:14:09;;;;;;;0.00;0.00;;;;;;;8.64;73.89;99326.34;7363750;19;20336;-58
2023/01/13 03:16:40;;;;;;;0.00;0.00;;;;;;;8.61;73.90;99319.47;7257702;19;2004404;-56
2023/01/13 03:19:33;;;;;;;0.10;0.10;;;;;;;8.60;73.77;99329.94;7362243;19;20014;-58
2023/01/13 03:22:11;;;;;;;0.10;0.10;;;;;;;8.58;73.70;99327.41;7262334;19;2004399;-58
2023/01/13 03:24:39;;;;;;;;;;;;;;;8.60;74.13;99340.38;7361629;19;20006;-58
2023/01/13 03:27:14;;;;;;;0.00;0.00;;;;;;;8.60;73.65;99341.22;7363259;19;19932;-58
2023/01/13 03:29:54;;;;;;;0.10;0.10;;;;;;;8.46;73.94;99333.88;7364504;19;20011;-56
2023/01/13 03:32:33;;;;;;;0.00;0.00;;;;;;;8.50;73.87;99353.69;7364840;19;20069;-58
2023/01/13 03:35:04;;;;;;;0.10;0.10;;;;;;;8.60;74.20;99392.41;7356028;19;20362;-58
2023/01/13 03:37:34;;;;;;;0.00;0.00;;;;;;;8.60;74.13;99387.19;7364492;19;20569;-59
2023/01/13 03:40:07;;;;;;;0.00;0.00;;;;;;;8.60;74.09;99382.00;7356548;19;20026;-56
2023/01/13 03:42:35;;;;;;;0.00;0.00;;;;;;;8.45;74.30;99373.81;7360908;19;20115;-59
2023/01/13 03:45:15;;;;;;;0.10;0.10;;;;;;;8.63;74.02;99397.50;7357824;19;20031;-58
2023/01/13 03:47:48;;;;;;;0.03;0.03;;;;;;;8.65;74.44;99416.50;7363421;19;20745;-58
2023/01/13 03:50:22;;;;;;;0.00;0.00;;;;;;;8.66;73.97;99416.44;7359854;19;20018;-58
2023/01/13 03:53:13;;;;;;;0.00;0.00;;;;;;;8.67;74.10;99458.94;7362506;19;20007;-58
2023/01/13 03:55:50;;;;;;;0.10;0.10;;;;;;;8.68;73.74;99426.81;7260345;19;2004474;-58
2023/01/13 03:58:31;;;;;;;0.00;0.00;;;;;;;8.67;74.15;99435.50;7362383;19;20031;-57
2023/01/13 04:01:24;;;;;;;0.03;0.03;;;;;;;8.67;73.85;99430.31;7361609;19;20017;-58
2023/01/13 04:03:58;;;;;;;0.00;0.00;;;;;;;8.55;73.91;99406.41;7257009;19;2004548;-58
2023/01/13 04:06:39;;;;;;;0.00;0.00;;;;;;;8.63;73.82;99428.75;7342304;19;20011;-57
2023/01/13 04:09:15;;;;;;;0.03;0.03;;;;;;;8.62;74.05;99437.41;7364687;19;20037;-57
2023/01/13 04:11:48;;;;;;;0.00;0.00;;;;;;;8.61;74.14;99446.13;7362438;19;20543;-58
2023/01/13 04:14:16;;;;;;;0.00;0.00;;;;;;;8.58;74.19;99454.91;7356159;19;20818;-58
2023/01/13 04:16:41;;;;;;;;;;;;;;;8.58;73.84;99454.91;7363908;19;20050;-58
2023/01/13 04:19:06;;;;;;;0.10;0.10;;;;;;;8.52;74.12;99476.78;7361439;19;20373;-58
2023/01/13 04:21:33;;;;;;;0.10;0.10;;;;;;;8.44;74.45;99465.78;7343426;19;20002;-58
2023/01/13 04:23:59;;;;;;;0.10;0.10;;;;;;;8.47;74.61;99468.28;7364247;19;20530;-59
2023/01/13 04:26:24;;;;;;;0.00;0.00;;;;;;;8.48;74.50;99483.00;7362247;19;20106;-58
2023/01/13 04:28:50;;;;;;;0.10;0.10;;;;;;;8.45;74.48;99461.44;7362320;19;20059;-58
2023/01/13 04:31:16;;;;;;;0.10;0.10;;;;;;;8.44;75.03;99472.75;7358899;19;20011;-58
2023/01/13 04:33:42;;;;;;;0.03;0.03;;;;;;;8.34;74.96;99438.34;7360586;19;20804;-58
2023/01/13 04:36:07;;;;;;;0.10;0.10;;;;;;;8.40;74.88;99464.19;7363145;19;20006;-58
2023/01/13 04:38:33;;;;;;;0.10;0.10;;;;;;;8.29;74.72;99463.66;7366295;19;20006;-58
2023/01/13 04:40:58;;;;;;;0.10;0.10;;;;;;;8.34;75.01;99477.38;7364118;19;20336;-58
2023/01/13 04:43:23;;;;;;;0.03;0.03;;;;;;;8.31;74.81;99491.34;7360442;19;20010;-57
2023/01/13 04:45:49;;;;;;;0.10;0.10;;;;;;;8.29;74.57;99493.13;7362816;19;20028;-58
2023/01/13 04:48:14;;;;;;;0.00;0.00;;;;;;;8.26;75.01;99502.75;7356534;19;20657;-58
2023/01/13 04:50:40;;;;;;;0.10;0.10;;;;;;;8.24;74.59;99494.16;7363884;19;20010;-58
2023/01/13 04:53:06;;;;;;;0.10;0.10;;;;;;;8.22;74.68;99504.63;7360820;19;20014;-58
2023/01/13 04:55:31;;;;;;;0.03;0.03;;;;;;;8.18;74.49;99515.19;7360326;19;20007;-58
2023/01/13 04:58:03;;;;;;;0.00;0.00;;;;;;;8.14;74.79;99513.56;7359934;19;20045;-58
2023/01/13 05:00:28;;;;;;;0.00;0.00;;;;;;;8.05;74.86;99520.75;7362403;19;20007;-58
2023/01/13 05:02:54;;;;;;;0.00;0.00;;;;;;;8.12;74.67;99530.97;7359054;19;20014;-58
2023/01/13 05:05:19;;;;;;;0.10;0.10;;;;;;;8.08;75.01;99551.03;7362106;19;20018;-58
2023/01/13 05:07:45;;;;;;;0.10;0.10;;;;;;;7.95;75.17;99536.69;7360405;19;20010;-58
2023/01/13 05:10:10;;;;;;;0.10;0.10;;;;;;;8.02;75.11;99554.66;7365343;19;20583;-58
2023/01/13 05:18:04;;;;;;;0.08;0.08;;;;;;;7.99;75.31;99567.75;7364760;19;20017;-58
2023/01/13 05:20:30;;;;;;;0.00;0.00;;;;;;;7.98;75.05;99554.78;7366489;19;20385;-58
2023/01/13 05:25:42;;;;;;;0.00;0.00;;;;;;;7.97;74.85;99574.75;7362870;19;20026;-57
2023/01/13 05:28:08;;;;;;;0.10;0.10;;;;;;;7.94;75.11;99569.63;7365112;19;20085;-58
2023/01/13 05:30:42;;;;;;;0.10;0.10;;;;;;;7.94;74.86;99595.63;7368179;19;20024;-58
2023/01/13 05:33:12;;;;;;;0.10;0.10;;;;;;;7.95;74.84;99586.91;7364562;19;20027;-58
2023/01/13 05:35:40;;;;;;;0.00;0.00;;;;;;;7.96;75.09;99586.06;7365863;19;20003;-58
2023/01/13 05:38:05;;;;;;;;;;;;;;;7.97;75.37;99608.53;7366160;19;20010;-57
2023/01/13 05:43:23;;;;;;;0.10;0.10;;;;;;;8.00;74.47;99623.19;7363293;19;20047;-58
2023/01/13 05:45:51;;;;;;;0.10;0.10;;;;;;;7.98;74.64;99592.03;7363670;19;20010;-57
2023/01/13 05:48:19;;;;;;;0.00;0.00;;;;;;;7.99;74.43;99593.75;7363244;19;20029;-58
2023/01/13 05:50:45;;;;;;;0.08;0.08;;;;;;;7.96;74.88;99596.44;7372242;19;20048;-57
2023/01/13 05:53:10;;;;;;;0.10;0.10;;;;;;;7.98;74.74;99612.84;7362530;19;19999;-56
2023/01/13 05:55:40;;;;;;;0.10;0.10;;;;;;;8.00;74.68;99610.19;7365704;19;20031;-58
2023/01/13 05:58:07;;;;;;;0.10;0.10;;;;;;;7.98;74.85;99625.84;7365468;19;20096;-58
2023/01/13 06:00:33;;;;;;;0.10;0.10;;;;;;;7.87;74.78;99590.66;7364754;19;20013;-58
2023/01/13 06:02:58;;;;;;;0.00;0.00;;;;;;;8.00;74.72;99634.44;7364292;19;20018;-58
2023/01/13 06:05:24;;;;;;;0.05;0.05;;;;;;;7.86;74.50;99618.41;7365465;19;20030;-58
2023/01/13 06:07:49;;;;;;;0.10;0.10;;;;;;;7.96;74.79;99638.03;7358731;19;20025;-58
2023/01/13 06:10:15;;;;;;;0.00;0.00;;;;;;;7.93;74.68;99630.31;7365542;19;20546;-58
2023/01/13 06:12:41;;;;;;;0.00;0.00;;;;;;;7.96;74.62;99624.19;7365513;19;20010;-58
2023/01/13 06:15:07;;;;;;;0.10;0.10;;;;;;;7.97;74.57;99647.53;7365541;19;23161;-57
2023/01/13 06:17:32;;;;;;;0.00;0.00;;;;;;;7.96;74.74;99648.44;7361622;19;20014;-58
2023/01/13 06:19:58;;;;;;;0.00;0.00;;;;;;;7.89;74.66;99641.69;7363824;19;22197;-56
2023/01/13 06:22:34;;;;;;;0.00;0.00;;;;;;;7.96;74.60;99645.00;7363523;19;20573;-58
2023/01/13 06:25:00;;;;;;;0.00;0.00;;;;;;;7.97;74.72;99647.53;7365700;19;20010;-58
2023/01/13 06:27:27;;;;;;;0.00;0.00;;;;;;;7.96;74.65;99648.44;7366408;19;20022;-56
2023/01/13 06:29:55;;;;;;;0.00;0.00;;;;;;;7.96;74.75;99639.78;7365839;19;20461;-57
2023/01/13 06:32:26;;;;;;;0.00;0.00;;;;;;;7.96;74.48;99661.44;7363424;19;21242;-58
2023/01/13 06:35:02;;;;;;;0.03;0.03;;;;;;;7.95;74.24;99680.50;7360064;19;20030;-57
2023/01/13 06:37:28;;;;;;;0.00;0.00;;;;;;;7.94;74.16;99668.41;7364529;19;20457;-58
2023/01/13 06:39:59;;;;;;;0.10;0.10;;;;;;;7.94;74.64;99636.38;7364565;19;20031;-57
2023/01/13 06:45:12;;;;;;;0.10;0.10;;;;;;;7.93;74.26;99677.09;7262149;19;2004516;-58
2023/01/13 06:47:37;;;;;;;0.10;0.10;;;;;;;7.92;74.39;99675.41;7362525;19;20022;-58
2023/01/13 06:50:03;;;;;;;0.00;0.00;;;;;;;7.86;74.63;99675.59;7364448;19;20031;-58
2023/01/13 06:52:29;;;;;;;0.00;0.00;;;;;;;7.92;74.47;99684.97;7364337;19;20086;-58
2023/01/13 06:54:56;;;;;;;0.00;0.00;;;;;;;7.92;74.60;99690.16;7364269;19;20010;-58
2023/01/13 06:57:21;;;;;;;0.00;0.00;;;;;;;7.87;74.51;99698.09;7362850;19;20049;-58
2023/01/13 06:59:47;;;;;;;0.05;0.05;;;;;;;7.90;74.50;99708.38;7351226;19;20730;-58
2023/01/13 07:02:12;;;;;;;0.05;0.05;;;;;;;7.87;74.64;99702.44;7362213;19;20014;-58
2023/01/13 07:04:38;;;;;;;0.10;0.10;;;;;;;7.90;74.66;99718.78;7362675;19;20006;-58
2023/01/13 07:07:03;;;;;;;0.00;0.00;;;;;;;7.88;74.39;99720.56;7363533;19;20474;-57
2023/01/13 07:09:28;;;;;;;0.10;0.10;;;;;;;7.90;74.64;99749.13;7361288;19;20018;-58
2023/01/13 07:11:54;;;;;;;0.00;0.00;;;;;;;7.88;74.58;99715.38;7360965;19;20011;-57
2023/01/13 07:17:03;;;;;;;0.00;0.00;;;;;;;7.90;74.62;99734.38;7363374;19;20047;-58
2023/01/13 07:19:28;;;;;;;0.08;0.08;;;;;;;7.91;74.83;99743.03;7369254;19;20027;-57
2023/01/13 07:21:54;;;;;;;0.05;0.05;;;;;;;7.89;74.58;99766.47;7359878;19;20010;-58
2023/01/13 07:24:21;;;;;;;0.10;0.10;;;;;;;7.90;74.67;99752.56;7362881;19;20052;-58
2023/01/13 07:26:46;;;;;;;0.00;0.00;;;;;;;7.90;74.56;99749.97;7362855;19;20020;-58
2023/01/13 07:29:12;;;;;;;0.03;0.03;;;;;;;7.93;74.61;99755.09;7368021;19;20035;-58
2023/01/13 07:31:38;;;;;;;0.00;0.00;;;;;;;7.92;74.81;99770.75;7360882;19;20049;-58
2023/01/13 07:34:04;;;;;;;0.00;0.00;;;;;;;7.88;74.70;99772.56;7360403;19;20014;-58
2023/01/13 07:36:29;;;;;;;0.10;0.10;;;;;;;7.92;74.72;99766.38;7361270;19;20094;-58
2023/01/13 07:38:55;;;;;;;0.00;0.00;;;;;;;7.94;74.43;99772.38;7361662;19;20108;-57
2023/01/13 07:44:05;;;;;;;0.08;0.08;;;;;;;7.94;74.51;99777.59;7360351;19;20021;-58
2023/01/13 07:46:31;;;;;;;0.00;0.00;;;;;;;7.95;74.31;99807.88;7362486;19;20022;-58
2023/01/13 07:48:57;;;;;;;0.00;0.00;;;;;;;7.95;74.50;99786.25;7361699;19;20044;-58
2023/01/13 07:51:22;;;;;;;0.10;0.10;;;;;;;7.93;74.17;99801.03;7350640;19;21365;-58
2023/01/13 07:53:48;;;;;;;0.10;0.10;;;;;;;7.87;74.51;99785.59;7350586;19;20040;-57
2023/01/13 07:56:14;;;;;;;0.00;0.00;;;;;;;7.93;74.10;99795.84;7361362;19;20074;-58
2023/01/13 07:58:39;;;;;;;0.10;0.10;;;;;;;7.88;73.72;99805.50;7362953;19;20018;-58
2023/01/13 08:01:12;;;;;;;0.10;0.10;;;;;;;7.92;74.33;99813.19;7368410;19;20031;-58
2023/01/13 08:03:39;;;;;;;0.00;0.00;;;;;;;7.94;74.04;99821.78;7372047;19;20505;-58
2023/01/13 08:06:05;;;;;;;0.00;0.00;;;;;;;7.92;73.60;99823.59;7360513;19;20023;-54
2023/01/13 08:08:31;;;;;;;0.00;0.00;;;;;;;7.89;73.96;99821.03;7361024;19;20010;-57
2023/01/13 08:11:05;;;;;;;0.03;0.03;;;;;;;7.90;73.59;99830.53;7351681;19;20960;-58
2023/01/13 08:13:30;;;;;;;0.08;0.08;;;;;;;7.89;73.70;99849.66;7366237;19;20014;-58
2023/01/13 08:16:15;;;;;;;0.00;0.00;;;;;;;7.92;73.59;99835.72;7366935;19;20020;-58
2023/01/13 08:18:40;;;;;;;0.10;0.10;;;;;;;7.88;73.97;99840.16;7361100;19;20018;-58
2023/01/13 08:21:09;;;;;;;0.10;0.10;;;;;;;7.90;73.74;99846.16;7363197;19;22335;-58
2023/01/13 08:23:35;;;;;;;0.10;0.10;;;;;;;7.89;73.75;99849.66;7364062;19;20011;-58
2023/01/13 08:26:06;;;;;;;0.10;0.10;;;;;;;7.88;73.35;99842.75;7357686;19;20725;-55
2023/01/13 08:28:31;;;;;;;0.10;0.10;;;;;;;7.86;73.63;99852.34;7361646;19;20036;-58
2023/01/13 08:31:06;;;;;;;0.03;0.03;;;;;;;7.90;73.70;99861.75;7360546;19;21027;-58
2023/01/13 08:33:32;;;;;;;0.10;0.10;;;;;;;7.87;73.53;99832.41;7359064;19;20030;-57
2023/01/13 08:36:01;;;;;;;0.10;0.10;;;;;;;7.88;73.44;99884.34;7361806;19;20018;-58
2023/01/13 08:38:26;;;;;;;0.10;0.10;;;;;;;7.88;73.60;99879.13;7360015;19;20007;-57
2023/01/13 08:40:52;;;;;;;0.00;0.00;;;;;;;7.89;73.42;99893.84;7359157;19;21364;-58
2023/01/13 08:43:17;;;;;;;0.10;0.10;;;;;;;7.91;73.70;99897.25;7361352;19;20042;-58
2023/01/13 08:45:43;;;;;;;0.00;0.00;;;;;;;7.92;73.52;99887.72;7356618;19;22311;-56
2023/01/13 08:48:08;;;;;;;0.00;0.00;;;;;;;7.92;73.43;99908.50;7352981;19;20020;-58
2023/01/13 08:50:34;;;;;;;0.08;0.08;;;;;;;7.93;73.34;99921.47;7363065;19;20013;-57
2023/01/13 08:52:59;;;;;;;0.10;0.10;;;;;;;7.93;73.29;99905.88;7358034;19;20648;-58
2023/01/13 08:55:25;;;;;;;0.10;0.10;;;;;;;7.95;73.41;99918.81;7361650;19;20003;-56
2023/01/13 08:57:50;;;;;;;0.00;0.00;;;;;;;7.95;73.46;99917.06;7359404;19;20007;-58
2023/01/13 09:00:16;;;;;;;0.00;0.00;;;;;;;7.99;73.16;99920.47;7353701;19;20002;-56
2023/01/13 09:02:41;;;;;;;0.10;0.10;;;;;;;7.99;73.30;99947.31;7358096;19;20022;-57
2023/01/13 09:05:09;;;;;;;0.10;0.10;;;;;;;8.01;73.35;99939.50;7359001;19;20714;-58
2023/01/13 09:07:36;;;;;;;0.10;0.10;;;;;;;8.00;72.88;99941.22;7356704;19;20025;-56
2023/01/13 09:10:04;;;;;;;0.08;0.08;;;;;;;7.93;72.93;99926.66;7357768;19;20115;-56
2023/01/13 09:15:17;;;;;;;0.10;0.10;;;;;;;8.03;72.99;99959.34;7356535;19;20012;-59
2023/01/13 09:17:42;;;;;;;0.00;0.00;;;;;;;8.00;72.63;99959.41;7356767;19;20376;-58
2023/01/13 09:20:09;;;;;;;0.10;0.10;;;;;;;8.05;72.85;99952.34;7357744;19;20010;-58
2023/01/13 09:22:36;;;;;;;0.10;0.10;;;;;;;8.05;72.40;99980.94;7360501;19;20010;-58
2023/01/13 09:25:02;;;;;;;0.10;0.10;;;;;;;8.05;72.89;99978.34;7359267;19;20020;-58
2023/01/13 09:27:27;;;;;;;0.10;0.10;;;;;;;8.05;72.67;99998.31;7362382;19;20353;-56
2023/01/13 09:29:53;;;;;;;0.10;0.10;;;;;;;8.05;72.66;99999.16;7355900;19;22365;-58
2023/01/13 09:32:18;;;;;;;0.08;0.08;;;;;;;8.07;72.17;100020.78;7358362;19;20014;-57
2023/01/13 09:34:59;;;;;;;0.10;0.10;;;;;;;8.07;71.93;100001.75;7355580;19;20006;-58
2023/01/13 09:37:39;;;;;;;0.00;0.00;;;;;;;8.12;72.65;100006.84;7362340;19;20048;-58
2023/01/13 09:40:30;;;;;;;0.08;0.08;;;;;;;8.13;72.70;100022.41;7358344;19;20066;-58
2023/01/13 09:45:52;;;;;;;0.00;0.00;;;;;;;8.13;72.76;100012.00;7354033;19;20973;-58
2023/01/13 09:48:33;;;;;;;0.08;0.08;;;;;;;8.22;72.62;100023.94;7358492;19;20018;-57
2023/01/13 09:51:23;;;;;;;0.10;0.10;;;;;;;8.25;72.21;100031.66;7354832;19;20010;-58
2023/01/13 09:54:20;;;;;;;0.10;0.10;;;;;;;8.35;72.12;100056.53;7357954;19;20027;-58
2023/01/13 09:56:46;;;;;;;0.10;0.10;;;;;;;8.38;71.99;100035.69;7262170;19;2004464;-58
2023/01/13 09:59:11;;;;;;;0.10;0.10;;;;;;;8.45;72.05;100045.06;7362520;19;20014;-58
2023/01/13 10:02:00;;;;;;;0.10;0.10;;;;;;;8.54;72.08;100024.00;7363878;19;20078;-55
2023/01/13 10:04:26;;;;;;;0.10;0.10;;;;;;;8.64;72.05;100034.19;7363176;19;20031;-56
2023/01/13 10:06:57;;;;;;;0.10;0.10;;;;;;;8.74;71.62;100048.69;7363483;19;20478;-57
2023/01/13 10:09:32;;;;;;;0.00;0.00;;;;;;;8.82;71.53;100044.16;7364108;19;20010;-58
2023/01/13 10:14:49;;;;;;;0.00;0.00;;;;;;;9.02;71.04;100054.91;7364767;19;20763;-58
2023/01/13 10:17:17;;;;;;;0.10;0.10;;;;;;;9.17;71.39;100065.78;7360721;19;20029;-56
2023/01/13 10:19:45;;;;;;;0.10;0.10;;;;;;;9.20;71.40;100052.69;7362611;19;20042;-58
2023/01/13 10:22:32;;;;;;;0.00;0.00;;;;;;;9.45;71.47;100073.69;7364688;19;20006;-57
2023/01/13 10:25:32;;;;;;;0.00;0.00;;;;;;;9.59;71.23;100076.78;7261622;19;2004477;-57
2023/01/13 10:28:07;;;;;;;0.10;0.10;;;;;;;9.73;70.63;100084.19;7260651;19;2004266;-58
2023/01/13 10:30:35;;;;;;;0.00;0.00;;;;;;;9.88;69.71;100087.22;7364250;19;20043;-58
2023/01/13 10:33:09;;;;;;;0.00;0.00;;;;;;;10.05;68.21;100097.13;7364502;19;20013;-57
2023/01/13 10:36:00;;;;;;;0.10;0.10;;;;;;;10.22;68.59;100107.03;7363949;19;20832;-58
2023/01/13 10:38:39;;;;;;;0.00;0.00;;;;;;;10.30;68.32;100099.88;7259653;19;2004509;-58
2023/01/13 10:41:15;;;;;;;0.10;0.10;;;;;;;10.42;68.42;100114.28;7360705;19;20465;-58
2023/01/13 10:43:42;;;;;;;0.00;0.00;;;;;;;10.50;67.54;100133.19;7364678;19;20035;-57
2023/01/13 10:46:15;;;;;;;0.10;0.10;;;;;;;10.65;68.07;100145.75;7361480;19;20034;-58
2023/01/13 10:48:52;;;;;;;0.10;0.10;;;;;;;10.78;67.95;100155.78;7364018;19;20053;-58
2023/01/13 10:51:29;;;;;;;0.05;0.05;;;;;;;10.88;66.13;100150.22;7364097;19;20021;-57
2023/01/13 10:54:02;;;;;;;0.10;0.10;;;;;;;11.05;67.17;100174.94;7362579;19;20010;-57
2023/01/13 10:56:32;;;;;;;0.00;0.00;;;;;;;11.16;66.30;100176.31;7363901;19;20859;-58
2023/01/13 10:59:25;;;;;;;0.10;0.10;;;;;;;11.35;67.01;100180.88;7364607;19;20010;-58
2023/01/13 11:01:59;;;;;;;0.10;0.10;;;;;;;11.42;65.92;100174.56;7263980;19;2004524;-57
2023/01/13 11:04:54;;;;;;;0.00;0.00;;;;;;;11.56;66.41;100171.47;7365936;19;20795;-58
2023/01/13 11:07:40;;;;;;;0.10;0.10;;;;;;;11.69;65.71;100186.66;7261388;19;2004418;-57
2023/01/13 11:10:08;;;;;;;0.03;0.03;;;;;;;11.67;63.74;100191.09;7363823;19;20018;-58
2023/01/13 11:12:42;;;;;;;0.10;0.10;;;;;;;11.77;64.17;100182.94;7361523;19;20006;-58
2023/01/13 11:15:14;;;;;;;0.10;0.10;;;;;;;11.78;62.79;100184.63;7361342;19;20670;-58
2023/01/13 11:18:03;;;;;;;0.00;0.00;;;;;;;11.83;63.84;100203.66;7363280;19;20057;-59
2023/01/13 11:20:40;;;;;;;0.10;0.10;;;;;;;11.87;63.92;100200.03;7359634;19;20462;-58
2023/01/13 11:23:33;;;;;;;0.10;0.10;;;;;;;11.92;64.49;100208.56;7363440;19;20621;-58
2023/01/13 11:26:10;;;;;;;0.00;0.00;;;;;;;11.99;63.59;100210.03;7261673;19;2004673;-57
2023/01/13 11:28:41;;;;;;;0.00;0.00;;;;;;;12.13;64.22;100206.94;7363193;19;20012;-58
2023/01/13 11:31:23;;;;;;;0.10;0.10;;;;;;;12.30;64.47;100203.69;7362186;19;20010;-58
2023/01/13 11:34:03;;;;;;;0.10;0.10;;;;;;;12.40;63.68;100218.97;7362825;19;20465;-58
2023/01/13 11:36:37;;;;;;;0.10;0.10;;;;;;;12.54;62.07;100202.75;7361810;19;20010;-58
2023/01/13 11:39:41;;;;;;;0.10;0.10;;;;;;;12.80;63.63;100225.31;7361837;19;20742;-58
2023/01/13 11:42:24;;;;;;;0.00;0.00;;;;;;;12.97;63.11;100212.38;7260170;19;2004075;-58
2023/01/13 11:45:10;;;;;;;0.10;0.10;;;;;;;13.09;61.97;100226.75;7363279;19;20830;-58
2023/01/13 11:47:37;;;;;;;0.08;0.08;;;;;;;13.16;60.49;100225.59;7360421;19;20038;-58
2023/01/13 11:50:14;;;;;;;0.05;0.05;;;;;;;13.33;60.80;100224.94;7357530;19;20030;-56
2023/01/13 11:53:06;;;;;;;0.10;0.10;;;;;;;13.45;60.47;100249.81;7355895;19;20881;-58
2023/01/13 11:55:46;;;;;;;0.10;0.10;;;;;;;13.57;60.20;100238.78;7254091;19;2004308;-57
2023/01/13 11:58:53;;;;;;;0.00;0.00;;;;;;;13.66;59.08;100238.41;7358187;19;20020;-58
2023/01/13 12:01:40;;;;;;;0.00;0.00;;;;;;;13.81;59.27;100249.16;7249309;19;2004303;-58
2023/01/13 12:04:20;;;;;;;;;;;;;;;13.95;60.87;100244.16;7250305;19;2004567;-58
2023/01/13 12:06:51;;;;;;;0.00;0.00;;;;;;;13.98;57.85;100246.63;7356922;19;20286;-58
2023/01/13 12:10:07;;;;;;;0.10;0.10;;;;;;;14.17;59.33;100250.16;7356984;19;20110;-57
2023/01/13 12:13:02;;;;;;;0.00;0.00;;;;;;;14.20;57.80;100247.41;7250652;19;2004556;-59
2023/01/13 12:15:47;;;;;;;0.08;0.08;;;;;;;14.33;57.32;100239.81;7254305;19;2004569;-58
2023/01/13 12:18:40;;;;;;;0.10;0.10;;;;;;;14.44;58.24;100253.28;7363244;19;20017;-58
2023/01/13 12:21:15;;;;;;;0.10;0.10;;;;;;;14.40;57.51;100230.75;7264617;19;2004347;-58
2023/01/13 12:23:43;;;;;;;0.10;0.10;;;;;;;14.55;54.98;100276.50;7357452;19;20014;-58
2023/01/13 12:26:12;;;;;;;0.10;0.10;;;;;;;14.62;54.80;100256.06;7359416;19;20778;-58
2023/01/13 12:28:59;;;;;;;0.10;0.10;;;;;;;14.70;56.59;100267.03;7356976;19;20027;-58
2023/01/13 12:31:26;;;;;;;0.03;0.03;;;;;;;14.67;55.50;100259.31;7258288;19;2004564;-57
2023/01/13 12:34:19;;;;;;;0.10;0.10;;;;;;;14.77;56.34;100277.22;7361393;19;20513;-58
2023/01/13 12:37:04;;;;;;;0.00;0.00;;;;;;;14.73;54.97;100275.66;7256820;19;2004484;-58
2023/01/13 12:39:58;;;;;;;0.10;0.10;;;;;;;14.85;56.12;100290.00;7361681;19;20006;-58